createdAt,value
2017-10-29T00:00:26.807Z,53.41
2017-10-29T00:01:36.209Z,53.22
2017-10-29T00:02:45.240Z,53.39
2017-10-29T00:03:54.585Z,53.48
2017-10-29T00:05:03.918Z,53.19
2017-10-29T00:06:13.243Z,53.31
2017-10-29T00:07:21.923Z,53.61
2017-10-29T00:08:31.257Z,53.29
2017-10-29T00:09:40.252Z,53.29
2017-10-29T00:10:49.581Z,53.31
2017-10-29T00:11:58.698Z,53.67
2017-10-29T00:13:08.423Z,53.31
2017-10-29T00:14:17.411Z,53.22
2017-10-29T00:15:26.607Z,53.48
2017-10-29T00:16:35.596Z,53.58
2017-10-29T00:17:44.947Z,53.67
2017-10-29T00:18:54.314Z,53.29
2017-10-29T00:20:03.688Z,53.31
2017-10-29T00:21:12.702Z,53.48
2017-10-29T00:22:22.012Z,53.29
2017-10-29T00:23:31.041Z,53.41
2017-10-29T00:24:40.374Z,53.89
2017-10-29T00:25:49.756Z,53.31
2017-10-29T00:26:58.754Z,53.31
2017-10-29T00:28:07.738Z,53.31
2017-10-29T00:29:16.402Z,53.39
2017-10-29T00:30:25.392Z,53.22
2017-10-29T00:31:34.413Z,53.41
2017-10-29T00:32:44.179Z,53.51
2017-10-29T00:33:53.548Z,53.61
2017-10-29T00:35:02.869Z,53.8
2017-10-29T00:36:11.849Z,53.31
2017-10-29T00:37:21.189Z,53.61
2017-10-29T00:38:30.582Z,53.51
2017-10-29T00:39:39.691Z,53.22
2017-10-29T00:40:48.672Z,53.61
2017-10-29T00:41:58.027Z,53.7
2017-10-29T00:43:07.385Z,53.31
2017-10-29T00:44:16.699Z,53.41
2017-10-29T00:45:26.238Z,53.31
2017-10-29T00:46:36.327Z,53.31
2017-10-29T00:47:45.802Z,53.51
2017-10-29T00:48:54.852Z,53.41
2017-10-29T00:50:03.818Z,53.41
2017-10-29T00:51:13.439Z,53.61
2017-10-29T00:52:23.611Z,53.41
2017-10-29T00:53:33.342Z,53.41
2017-10-29T00:54:42.658Z,53.22
2017-10-29T00:55:51.955Z,53.22
2017-10-29T00:57:00.945Z,53.22
2017-10-29T00:58:10.605Z,53.51
2017-10-29T00:59:20.262Z,53.41
2017-10-29T01:00:28.923Z,53.7
2017-10-29T01:01:37.963Z,53.22
2017-10-29T01:02:46.934Z,53.51
2017-10-29T01:03:56.208Z,53.48
2017-10-29T01:05:05.517Z,53.41
2017-10-29T01:06:15.168Z,53.41
2017-10-29T01:07:24.134Z,53.39
2017-10-29T01:08:33.177Z,53.61
2017-10-29T01:09:41.833Z,53.19
2017-10-29T01:10:50.470Z,53.03
2017-10-29T01:12:00.517Z,53.22
2017-10-29T01:13:09.504Z,53.22
2017-10-29T01:14:18.815Z,53.51
2017-10-29T01:15:28.226Z,53.7
2017-10-29T01:16:37.214Z,53.22
2017-10-29T01:17:46.528Z,53.22
2017-10-29T01:18:55.518Z,53.8
2017-10-29T01:20:04.512Z,53.41
2017-10-29T01:21:13.479Z,53.8
2017-10-29T01:22:22.779Z,53.31
2017-10-29T01:23:31.751Z,53.61
2017-10-29T01:24:41.070Z,53.41
2017-10-29T01:25:50.041Z,53.51
2017-10-29T01:26:58.703Z,53.51
2017-10-29T01:28:07.694Z,53.41
2017-10-29T01:29:16.658Z,53.51
2017-10-29T01:30:25.955Z,53.22
2017-10-29T01:31:35.278Z,53.41
2017-10-29T01:32:44.597Z,53.51
2017-10-29T01:33:53.574Z,53.51
2017-10-29T01:35:02.239Z,53.41
2017-10-29T01:36:11.566Z,53.7
2017-10-29T01:37:20.547Z,53.31
2017-10-29T01:38:29.204Z,53.31
2017-10-29T01:39:38.833Z,53.31
2017-10-29T01:40:48.138Z,53.31
2017-10-29T01:41:57.432Z,53.8
2017-10-29T01:43:06.737Z,53.51
2017-10-29T01:44:15.709Z,53.51
2017-10-29T01:45:24.731Z,53.61
2017-10-29T01:46:33.700Z,53.61
2017-10-29T01:47:42.358Z,53.31
2017-10-29T01:48:51.001Z,53.31
2017-10-29T01:49:59.974Z,53.31
2017-10-29T01:51:09.275Z,53.31
2017-10-29T01:52:18.245Z,53.7
2017-10-29T01:53:26.958Z,53.7
2017-10-29T01:54:35.924Z,53.61
2017-10-29T01:55:44.895Z,53.31
2017-10-29T01:56:54.519Z,53.31
2017-10-29T01:58:03.499Z,53.99
2017-10-29T01:59:12.155Z,53.7
2017-10-29T02:00:21.472Z,53.7
2017-10-29T02:01:30.443Z,53.61
2017-10-29T02:02:39.414Z,53.7
2017-10-29T02:03:48.407Z,53.77
2017-10-29T02:04:57.379Z,53.51
2017-10-29T02:06:06.700Z,53.41
2017-10-29T02:07:15.350Z,54.38
2017-10-29T02:08:23.989Z,53.8
2017-10-29T02:09:33.650Z,53.31
2017-10-29T02:10:42.655Z,54.28
2017-10-29T02:11:51.631Z,53.41
2017-10-29T02:13:00.933Z,53.41
2017-10-29T02:14:09.931Z,53.41
2017-10-29T02:15:18.907Z,53.8
2017-10-29T02:16:27.908Z,53.8
2017-10-29T02:17:37.211Z,53.7
2017-10-29T02:18:46.570Z,53.31
2017-10-29T02:19:55.236Z,53.99
2017-10-29T02:21:04.227Z,53.31
2017-10-29T02:22:13.218Z,53.7
2017-10-29T02:23:22.196Z,53.61
2017-10-29T02:24:31.227Z,54.38
2017-10-29T02:25:40.921Z,54.28
2017-10-29T02:26:50.603Z,53.41
2017-10-29T02:27:59.570Z,53.51
2017-10-29T02:29:09.213Z,53.8
2017-10-29T02:30:18.323Z,53.7
2017-10-29T02:31:27.311Z,53.51
2017-10-29T02:32:36.283Z,53.51
2017-10-29T02:33:45.249Z,53.7
2017-10-29T02:34:54.291Z,53.7
2017-10-29T02:36:02.931Z,54.38
2017-10-29T02:37:11.906Z,54.28
2017-10-29T02:38:20.562Z,53.7
2017-10-29T02:39:29.902Z,53.89
2017-10-29T02:40:39.272Z,53.31
2017-10-29T02:41:48.581Z,54.28
2017-10-29T02:42:57.568Z,54.18
2017-10-29T02:44:06.231Z,53.31
2017-10-29T02:45:15.561Z,53.41
2017-10-29T02:46:25.195Z,53.31
2017-10-29T02:47:33.836Z,53.51
2017-10-29T02:48:42.866Z,53.51
2017-10-29T02:49:52.192Z,53.41
2017-10-29T02:51:01.513Z,54.18
2017-10-29T02:52:10.179Z,53.51
2017-10-29T02:53:18.835Z,53.7
2017-10-29T02:54:28.516Z,53.8
2017-10-29T02:55:37.816Z,53.7
2017-10-29T02:56:46.811Z,54.28
2017-10-29T02:57:56.444Z,53.61
2017-10-29T02:59:05.761Z,53.31
2017-10-29T03:00:14.429Z,53.51
2017-10-29T03:01:23.413Z,53.41
2017-10-29T03:02:32.081Z,53.41
2017-10-29T03:03:41.063Z,53.31
2017-10-29T03:04:49.728Z,53.41
2017-10-29T03:05:58.724Z,53.22
2017-10-29T03:07:07.692Z,53.31
2017-10-29T03:08:17.008Z,53.39
2017-10-29T03:09:26.623Z,53.41
2017-10-29T03:10:35.928Z,53.31
2017-10-29T03:11:45.231Z,53.31
2017-10-29T03:12:54.528Z,54.28
2017-10-29T03:14:03.498Z,53.51
2017-10-29T03:15:12.148Z,53.31
2017-10-29T03:16:21.117Z,53.31
2017-10-29T03:17:30.428Z,53.41
2017-10-29T03:18:39.088Z,53.51
2017-10-29T03:19:47.766Z,53.8
2017-10-29T03:20:57.395Z,53.99
2017-10-29T03:22:06.696Z,54.09
2017-10-29T03:23:15.348Z,53.7
2017-10-29T03:24:24.320Z,53.99
2017-10-29T03:25:33.655Z,53.7
2017-10-29T03:26:43.309Z,54.18
2017-10-29T03:27:52.625Z,54.09
2017-10-29T03:29:01.930Z,53.99
2017-10-29T03:30:11.897Z,54.18
2017-10-29T03:31:21.531Z,54.09
2017-10-29T03:32:30.523Z,54.18
2017-10-29T03:33:39.824Z,54.18
2017-10-29T03:34:49.131Z,54.18
2017-10-29T03:35:58.756Z,53.89
2017-10-29T03:37:07.742Z,54.09
2017-10-29T03:38:16.707Z,54.18
2017-10-29T03:39:26.670Z,54.18
2017-10-29T03:40:35.667Z,54.28
2017-10-29T03:41:44.652Z,54.18
2017-10-29T03:42:53.623Z,54.18
2017-10-29T03:44:02.606Z,54.18
2017-10-29T03:45:12.009Z,53.99
2017-10-29T03:46:20.656Z,54.28
2017-10-29T03:47:29.641Z,53.8
2017-10-29T03:48:38.343Z,53.8
2017-10-29T03:49:47.975Z,53.87
2017-10-29T03:50:56.967Z,53.99
2017-10-29T03:52:06.588Z,53.99
2017-10-29T03:53:15.243Z,53.89
2017-10-29T03:54:24.220Z,53.7
2017-10-29T03:55:33.187Z,53.99
2017-10-29T03:56:42.264Z,53.8
2017-10-29T03:57:51.247Z,53.8
2017-10-29T03:59:00.237Z,53.8
2017-10-29T04:00:09.559Z,54.28
2017-10-29T04:01:18.538Z,54.18
2017-10-29T04:02:27.527Z,54.18
2017-10-29T04:03:36.834Z,53.89
2017-10-29T04:04:45.810Z,53.89
2017-10-29T04:05:54.786Z,53.99
2017-10-29T04:07:04.419Z,54.09
2017-10-29T04:08:13.121Z,53.99
2017-10-29T04:09:22.443Z,53.99
2017-10-29T04:10:31.413Z,53.89
2017-10-29T04:11:40.397Z,53.99
2017-10-29T04:12:50.020Z,53.7
2017-10-29T04:13:59.960Z,53.89
2017-10-29T04:15:08.606Z,53.96
2017-10-29T04:16:17.586Z,53.8
2017-10-29T04:17:26.898Z,53.89
2017-10-29T04:18:35.894Z,53.89
2017-10-29T04:19:44.977Z,53.89
2017-10-29T04:20:54.600Z,53.99
2017-10-29T04:22:03.567Z,53.8
2017-10-29T04:23:12.206Z,53.89
2017-10-29T04:24:20.863Z,53.7
2017-10-29T04:25:30.275Z,53.99
2017-10-29T04:26:39.583Z,53.99
2017-10-29T04:27:48.248Z,53.7
2017-10-29T04:28:57.568Z,53.99
2017-10-29T04:30:06.538Z,53.99
2017-10-29T04:31:15.196Z,53.89
2017-10-29T04:32:24.163Z,53.99
2017-10-29T04:33:33.469Z,53.8
2017-10-29T04:34:42.456Z,53.99
2017-10-29T04:35:51.435Z,54.18
2017-10-29T04:37:00.207Z,53.99
2017-10-29T04:38:09.174Z,53.89
2017-10-29T04:39:17.837Z,54.09
2017-10-29T04:40:26.823Z,53.99
2017-10-29T04:41:35.824Z,53.7
2017-10-29T04:42:44.791Z,53.89
2017-10-29T04:43:53.780Z,53.99
2017-10-29T04:45:02.411Z,53.89
2017-10-29T04:46:11.079Z,53.8
2017-10-29T04:47:20.705Z,53.8
2017-10-29T04:48:29.448Z,53.77
2017-10-29T04:49:38.821Z,53.89
2017-10-29T04:50:47.478Z,53.89
2017-10-29T04:51:56.141Z,53.99
2017-10-29T04:53:05.109Z,53.99
2017-10-29T04:54:14.083Z,53.8
2017-10-29T04:55:23.732Z,53.89
2017-10-29T04:56:32.722Z,53.7
2017-10-29T04:57:42.027Z,53.8
2017-10-29T04:58:51.346Z,53.8
2017-10-29T05:00:00.117Z,53.8
2017-10-29T05:01:09.093Z,53.99
2017-10-29T05:02:18.726Z,53.8
2017-10-29T05:03:27.383Z,53.8
2017-10-29T05:04:36.690Z,54.09
2017-10-29T05:05:46.392Z,53.77
2017-10-29T05:06:55.371Z,53.99
2017-10-29T05:08:04.001Z,53.87
2017-10-29T05:09:13.317Z,54.09
2017-10-29T05:10:22.302Z,53.8
2017-10-29T05:11:31.597Z,54.09
2017-10-29T05:12:40.587Z,54.06
2017-10-29T05:13:49.563Z,53.89
2017-10-29T05:14:58.207Z,53.89
2017-10-29T05:16:07.165Z,54.09
2017-10-29T05:17:16.471Z,54.09
2017-10-29T05:18:25.787Z,53.89
2017-10-29T05:19:35.092Z,53.87
2017-10-29T05:20:44.403Z,53.89
2017-10-29T05:21:53.402Z,54.09
2017-10-29T05:23:02.045Z,53.99
2017-10-29T05:24:11.344Z,54.47
2017-10-29T05:25:20.325Z,54.06
2017-10-29T05:26:29.305Z,54.09
2017-10-29T05:27:38.354Z,54.06
2017-10-29T05:28:47.333Z,54.06
2017-10-29T05:29:56.375Z,54.47
2017-10-29T05:31:05.362Z,53.89
2017-10-29T05:32:14.405Z,54.28
2017-10-29T05:33:24.038Z,54.18
2017-10-29T05:34:33.658Z,54.25
2017-10-29T05:35:42.623Z,54.28
2017-10-29T05:36:51.273Z,54.18
2017-10-29T05:37:59.922Z,54.44
2017-10-29T05:39:09.233Z,54.16
2017-10-29T05:40:19.211Z,54.44
2017-10-29T05:41:28.205Z,54.09
2017-10-29T05:42:37.176Z,54.06
2017-10-29T05:43:46.480Z,54.09
2017-10-29T05:44:55.447Z,54.16
2017-10-29T05:46:04.409Z,54.25
2017-10-29T05:47:13.756Z,54.25
2017-10-29T05:48:22.408Z,54.25
2017-10-29T05:49:31.391Z,54.25
2017-10-29T05:50:40.379Z,54.25
2017-10-29T05:51:49.139Z,54.06
2017-10-29T05:52:58.136Z,54.06
2017-10-29T05:54:06.767Z,54.16
2017-10-29T05:55:16.089Z,54.16
2017-10-29T05:56:25.390Z,54.06
2017-10-29T05:57:35.126Z,54.25
2017-10-29T05:58:43.770Z,54.35
2017-10-29T05:59:53.097Z,54.25
2017-10-29T06:01:02.503Z,54.25
2017-10-29T06:02:11.812Z,54.25
2017-10-29T06:03:20.778Z,54.28
2017-10-29T06:04:30.073Z,54.16
2017-10-29T06:05:39.380Z,54.16
2017-10-29T06:06:48.381Z,54.16
2017-10-29T06:07:57.358Z,54.16
2017-10-29T06:09:06.333Z,54.25
2017-10-29T06:10:15.305Z,54.25
2017-10-29T06:11:24.928Z,54.06
2017-10-29T06:12:34.246Z,54.25
2017-10-29T06:13:42.892Z,54.25
2017-10-29T06:14:52.195Z,54.16
2017-10-29T06:16:01.161Z,54.25
2017-10-29T06:17:10.810Z,54.16
2017-10-29T06:18:20.445Z,54.06
2017-10-29T06:19:29.106Z,54.06
2017-10-29T06:20:38.192Z,54.06
2017-10-29T06:21:46.842Z,54.44
2017-10-29T06:22:55.507Z,54.06
2017-10-29T06:24:04.809Z,53.96
2017-10-29T06:25:13.451Z,54.06
2017-10-29T06:26:22.856Z,54.06
2017-10-29T06:27:32.480Z,54.44
2017-10-29T06:28:42.171Z,54.06
2017-10-29T06:29:50.805Z,54.06
2017-10-29T06:30:59.765Z,54.06
2017-10-29T06:32:08.738Z,54.06
2017-10-29T06:33:18.065Z,54.16
2017-10-29T06:34:26.710Z,54.25
2017-10-29T06:35:35.690Z,53.89
2017-10-29T06:36:45.323Z,54.44
2017-10-29T06:37:54.301Z,54.06
2017-10-29T06:39:02.964Z,54.25
2017-10-29T06:40:11.771Z,53.96
2017-10-29T06:41:21.069Z,54.16
2017-10-29T06:42:30.527Z,53.96
2017-10-29T06:43:40.585Z,54.09
2017-10-29T06:44:49.554Z,54.16
2017-10-29T06:45:58.547Z,54.25
2017-10-29T06:47:07.997Z,54.06
2017-10-29T06:48:17.679Z,54.54
2017-10-29T06:49:26.782Z,54.06
2017-10-29T06:50:35.466Z,53.96
2017-10-29T06:51:44.507Z,53.77
2017-10-29T06:52:53.363Z,53.89
2017-10-29T06:54:04.284Z,53.99
2017-10-29T06:55:12.949Z,53.96
2017-10-29T06:56:22.339Z,53.96
2017-10-29T06:57:31.665Z,53.99
2017-10-29T06:58:40.691Z,53.77
2017-10-29T06:59:50.326Z,53.8
2017-10-29T07:00:59.741Z,53.77
2017-10-29T07:02:09.052Z,53.96
2017-10-29T07:03:18.370Z,53.77
2017-10-29T07:04:27.697Z,53.89
2017-10-29T07:05:36.693Z,53.77
2017-10-29T07:06:45.378Z,53.61
2017-10-29T07:07:54.049Z,53.99
2017-10-29T07:09:03.027Z,53.89
2017-10-29T07:10:13.032Z,53.99
2017-10-29T07:11:21.690Z,53.8
2017-10-29T07:12:30.663Z,53.96
2017-10-29T07:13:39.358Z,54.09
2017-10-29T07:14:48.466Z,53.99
2017-10-29T07:15:57.954Z,53.89
2017-10-29T07:17:07.001Z,53.89
2017-10-29T07:18:16.270Z,54.28
2017-10-29T07:19:25.811Z,54.18
2017-10-29T07:20:34.564Z,54.06
2017-10-29T07:21:43.856Z,54.28
2017-10-29T07:22:52.515Z,54.09
2017-10-29T07:24:01.615Z,53.89
2017-10-29T07:25:10.920Z,53.41
2017-10-29T07:26:19.913Z,53.41
2017-10-29T07:27:28.899Z,53.61
2017-10-29T07:28:38.218Z,53.31
2017-10-29T07:29:47.208Z,54.18
2017-10-29T07:30:56.195Z,53.8
2017-10-29T07:32:05.155Z,54.09
2017-10-29T07:33:13.817Z,53.51
2017-10-29T07:34:22.496Z,53.41
2017-10-29T07:35:31.148Z,53.61
2017-10-29T07:36:40.141Z,53.31
2017-10-29T07:37:49.126Z,53.61
2017-10-29T07:38:58.460Z,53.8
2017-10-29T07:40:07.746Z,53.61
2017-10-29T07:41:16.722Z,53.22
2017-10-29T07:42:26.347Z,53.22
2017-10-29T07:43:36.010Z,53.22
2017-10-29T07:44:45.319Z,53.41
2017-10-29T07:45:53.958Z,53.22
2017-10-29T07:47:02.946Z,53.51
2017-10-29T07:48:11.581Z,53.31
2017-10-29T07:49:20.568Z,53.03
2017-10-29T07:50:29.545Z,53.03
2017-10-29T07:51:38.843Z,53.03
2017-10-29T07:52:48.169Z,53.22
2017-10-29T07:53:57.157Z,53.13
2017-10-29T07:55:06.449Z,53.41
2017-10-29T07:56:15.762Z,53.22
2017-10-29T07:57:24.397Z,53.31
2017-10-29T07:58:33.719Z,53.51
2017-10-29T07:59:42.564Z,53.61
2017-10-29T08:00:51.853Z,53.51
2017-10-29T08:02:00.852Z,53.51
2017-10-29T08:03:10.999Z,53.41
2017-10-29T08:04:20.106Z,53.51
2017-10-29T08:05:29.413Z,53.41
2017-10-29T08:06:38.422Z,52.83
2017-10-29T08:07:47.397Z,52.93
2017-10-29T08:08:56.447Z,53.51
2017-10-29T08:10:05.689Z,52.93
2017-10-29T08:11:15.313Z,53.31
2017-10-29T08:12:24.627Z,53.41
2017-10-29T08:13:33.608Z,53.31
2017-10-29T08:14:42.590Z,53.41
2017-10-29T08:15:51.883Z,52.93
2017-10-29T08:17:00.541Z,53.41
2017-10-29T08:18:09.532Z,52.93
2017-10-29T08:19:18.517Z,53.51
2017-10-29T08:20:27.219Z,53.13
2017-10-29T08:21:36.514Z,53.31
2017-10-29T08:22:45.478Z,53.51
2017-10-29T08:23:54.468Z,53.13
2017-10-29T08:25:03.459Z,52.93
2017-10-29T08:26:12.430Z,53.41
2017-10-29T08:27:21.086Z,53.41
2017-10-29T08:28:30.490Z,52.93
2017-10-29T08:29:39.564Z,53.61
2017-10-29T08:30:48.889Z,53.03
2017-10-29T08:31:58.203Z,53.61
2017-10-29T08:33:06.945Z,53.13
2017-10-29T08:34:16.252Z,52.93
2017-10-29T08:35:25.287Z,53.03
2017-10-29T08:36:34.048Z,53.8
2017-10-29T08:37:43.042Z,53.7
2017-10-29T08:38:51.697Z,53.13
2017-10-29T08:40:00.352Z,53.31
2017-10-29T08:41:09.714Z,52.93
2017-10-29T08:42:19.365Z,53.41
2017-10-29T08:43:28.704Z,53.41
2017-10-29T08:44:38.183Z,53.31
2017-10-29T08:45:46.970Z,53.31
2017-10-29T08:46:56.650Z,53.13
2017-10-29T08:48:06.319Z,53.41
2017-10-29T08:49:15.697Z,53.22
2017-10-29T08:50:25.048Z,53.03
2017-10-29T08:51:34.148Z,53.03
2017-10-29T08:52:43.564Z,52.83
2017-10-29T08:53:53.212Z,53.03
2017-10-29T08:55:02.213Z,53.13
2017-10-29T08:56:11.999Z,53.03
2017-10-29T08:57:20.659Z,52.45
2017-10-29T08:58:29.635Z,52.93
2017-10-29T08:59:39.276Z,52.76
2017-10-29T09:00:48.308Z,52.55
2017-10-29T09:01:57.652Z,52.47
2017-10-29T09:03:06.326Z,52.67
2017-10-29T09:04:15.013Z,52.86
2017-10-29T09:05:24.323Z,52.47
2017-10-29T09:06:33.692Z,52.37
2017-10-29T09:07:42.721Z,52.19
2017-10-29T09:08:51.420Z,52.57
2017-10-29T09:10:01.452Z,52.09
2017-10-29T09:11:10.111Z,52.47
2017-10-29T09:12:19.777Z,52.19
2017-10-29T09:13:28.785Z,52.09
2017-10-29T09:14:37.436Z,51.99
2017-10-29T09:15:46.138Z,52.09
2017-10-29T09:16:55.535Z,51.99
2017-10-29T09:18:04.567Z,51.89
2017-10-29T09:19:14.151Z,51.73
2017-10-29T09:20:23.222Z,51.73
2017-10-29T09:21:32.413Z,51.63
2017-10-29T09:22:41.632Z,52.01
2017-10-29T09:23:50.686Z,51.82
2017-10-29T09:25:00.007Z,52.01
2017-10-29T09:26:09.717Z,51.53
2017-10-29T09:27:19.040Z,51.92
2017-10-29T09:28:28.366Z,52.01
2017-10-29T09:29:37.036Z,51.82
2017-10-29T09:30:46.009Z,51.82
2017-10-29T09:31:55.636Z,51.82
2017-10-29T09:33:04.639Z,51.92
2017-10-29T09:34:13.681Z,52.01
2017-10-29T09:35:23.087Z,52.69
2017-10-29T09:36:32.433Z,52.47
2017-10-29T09:37:41.503Z,52.57
2017-10-29T09:38:50.489Z,53.31
2017-10-29T09:39:59.894Z,53.22
2017-10-29T09:41:09.735Z,53.8
2017-10-29T09:42:19.782Z,54.16
2017-10-29T09:43:29.507Z,54.35
2017-10-29T09:44:38.892Z,54.35
2017-10-29T09:45:47.981Z,54.32
2017-10-29T09:46:57.312Z,54.71
2017-10-29T09:48:06.077Z,55
2017-10-29T09:49:15.091Z,55
2017-10-29T09:50:24.084Z,55.07
2017-10-29T09:51:33.097Z,55.74
2017-10-29T09:52:42.426Z,56.2
2017-10-29T09:53:51.085Z,56
2017-10-29T09:55:00.100Z,56.48
2017-10-29T09:56:09.866Z,56.48
2017-10-29T09:57:18.747Z,56.48
2017-10-29T09:58:30.053Z,56.36
2017-10-29T09:59:39.368Z,56.65
2017-10-29T10:00:48.426Z,56.55
2017-10-29T10:01:57.405Z,56.26
2017-10-29T10:03:06.911Z,56.36
2017-10-29T10:04:15.910Z,56.16
2017-10-29T10:05:25.255Z,56.55
2017-10-29T10:06:34.233Z,56.65
2017-10-29T10:07:43.210Z,56.23
2017-10-29T10:08:52.241Z,56.23
2017-10-29T10:10:00.871Z,55.98
2017-10-29T10:11:09.865Z,56.04
2017-10-29T10:12:18.565Z,56.33
2017-10-29T10:13:27.977Z,56.14
2017-10-29T10:14:37.013Z,56.23
2017-10-29T10:15:45.681Z,56.14
2017-10-29T10:16:55.021Z,56.23
2017-10-29T10:18:04.026Z,56.52
2017-10-29T10:19:13.037Z,55.76
2017-10-29T10:20:22.350Z,55.66
2017-10-29T10:21:31.368Z,55.46
2017-10-29T10:22:40.060Z,55.27
2017-10-29T10:23:49.038Z,54.6
2017-10-29T10:24:57.752Z,54.53
2017-10-29T10:26:07.041Z,54.43
2017-10-29T10:27:16.346Z,54.63
2017-10-29T10:28:25.673Z,53.96
2017-10-29T10:29:34.348Z,53.78
2017-10-29T10:30:43.681Z,54.17
2017-10-29T10:31:52.704Z,53.11
2017-10-29T10:33:02.375Z,53.02
2017-10-29T10:34:11.402Z,52.92
2017-10-29T10:35:21.486Z,52.95
2017-10-29T10:36:30.811Z,52.37
2017-10-29T10:37:40.350Z,52.37
2017-10-29T10:38:49.012Z,52.47
2017-10-29T10:39:57.994Z,52.47
2017-10-29T10:41:07.701Z,51.89
2017-10-29T10:42:17.094Z,51.7
2017-10-29T10:43:26.531Z,51.5
2017-10-29T10:44:35.231Z,51.89
2017-10-29T10:45:44.264Z,51.79
2017-10-29T10:46:53.006Z,51.34
2017-10-29T10:48:02.005Z,51.14
2017-10-29T10:49:11.023Z,51.24
2017-10-29T10:50:20.031Z,51.14
2017-10-29T10:51:29.325Z,51.14
2017-10-29T10:52:38.690Z,50.95
2017-10-29T10:53:47.690Z,50.66
2017-10-29T10:54:57.031Z,50.85
2017-10-29T10:56:06.344Z,50.57
2017-10-29T10:57:15.656Z,50.57
2017-10-29T10:58:24.971Z,50.69
2017-10-29T10:59:33.953Z,50.21
2017-10-29T11:00:43.283Z,50.59
2017-10-29T11:01:52.310Z,50.4
2017-10-29T11:03:01.332Z,50.11
2017-10-29T11:04:10.335Z,50.3
2017-10-29T11:05:19.324Z,50.21
2017-10-29T11:06:28.313Z,50.21
2017-10-29T11:07:37.946Z,50.11
2017-10-29T11:08:46.609Z,50.3
2017-10-29T11:09:55.310Z,50.3
2017-10-29T11:11:04.333Z,50.69
2017-10-29T11:12:13.860Z,50.59
2017-10-29T11:13:22.896Z,50.21
2017-10-29T11:14:32.264Z,50.21
2017-10-29T11:15:40.911Z,50.11
2017-10-29T11:16:50.235Z,49.91
2017-10-29T11:17:59.683Z,50.21
2017-10-29T11:19:08.417Z,49.91
2017-10-29T11:20:17.212Z,50.3
2017-10-29T11:21:25.966Z,49.91
2017-10-29T11:22:34.634Z,50.11
2017-10-29T11:23:43.289Z,50.01
2017-10-29T11:24:51.955Z,50.01
2017-10-29T11:26:00.948Z,49.73
2017-10-29T11:27:09.611Z,49.91
2017-10-29T11:28:19.067Z,49.91
2017-10-29T11:29:28.119Z,49.91
2017-10-29T11:30:37.487Z,50.01
2017-10-29T11:31:46.925Z,50.01
2017-10-29T11:32:55.641Z,50.11
2017-10-29T11:34:05.373Z,50.11
2017-10-29T11:35:15.595Z,49.82
2017-10-29T11:36:24.618Z,49.91
2017-10-29T11:37:33.658Z,50.21
2017-10-29T11:38:43.419Z,50.21
2017-10-29T11:39:52.542Z,50.11
2017-10-29T11:41:01.605Z,50.21
2017-10-29T11:42:11.359Z,49.82
2017-10-29T11:43:20.411Z,49.82
2017-10-29T11:44:29.434Z,49.82
2017-10-29T11:45:38.790Z,49.73
2017-10-29T11:46:48.655Z,49.82
2017-10-29T11:47:57.796Z,49.91
2017-10-29T11:49:07.128Z,49.53
2017-10-29T11:50:16.773Z,49.82
2017-10-29T11:51:25.433Z,49.82
2017-10-29T11:52:34.759Z,49.73
2017-10-29T11:53:44.080Z,49.37
2017-10-29T11:54:53.225Z,49.37
2017-10-29T11:56:02.303Z,49.27
2017-10-29T11:57:11.100Z,49.17
2017-10-29T11:58:20.487Z,49.43
2017-10-29T11:59:29.821Z,49.17
2017-10-29T12:00:38.889Z,49.55
2017-10-29T12:01:47.640Z,49.55
2017-10-29T12:02:56.958Z,49.17
2017-10-29T12:04:05.964Z,49.34
2017-10-29T12:05:15.266Z,49.27
2017-10-29T12:06:24.264Z,49.37
2017-10-29T12:07:33.246Z,49.34
2017-10-29T12:08:42.233Z,49.27
2017-10-29T12:09:50.900Z,49.37
2017-10-29T12:11:00.569Z,49.37
2017-10-29T12:12:09.840Z,49.43
2017-10-29T12:13:19.658Z,49.17
2017-10-29T12:14:28.898Z,49.46
2017-10-29T12:15:38.271Z,49.43
2017-10-29T12:16:47.545Z,49.27
2017-10-29T12:17:57.156Z,49.27
2017-10-29T12:19:05.998Z,49.37
2017-10-29T12:20:14.753Z,49.55
2017-10-29T12:21:23.739Z,49.55
2017-10-29T12:22:32.728Z,49.43
2017-10-29T12:23:42.135Z,49.17
2017-10-29T12:24:51.138Z,49.17
2017-10-29T12:26:00.476Z,48.97
2017-10-29T12:27:09.459Z,48.95
2017-10-29T12:28:18.470Z,49.27
2017-10-29T12:29:27.797Z,48.59
2017-10-29T12:30:36.512Z,48.59
2017-10-29T12:31:46.181Z,48.97
2017-10-29T12:32:54.819Z,48.88
2017-10-29T12:34:03.459Z,48.69
2017-10-29T12:35:12.758Z,48.88
2017-10-29T12:36:21.432Z,48.97
2017-10-29T12:37:30.433Z,49.07
2017-10-29T12:38:39.798Z,49.07
2017-10-29T12:39:49.105Z,48.79
2017-10-29T12:40:57.790Z,48.79
2017-10-29T12:42:07.121Z,48.97
2017-10-29T12:43:16.202Z,48.97
2017-10-29T12:44:25.212Z,48.69
2017-10-29T12:45:34.192Z,48.88
2017-10-29T12:46:44.141Z,48.88
2017-10-29T12:47:53.167Z,48.88
2017-10-29T12:49:02.168Z,48.88
2017-10-29T12:50:11.473Z,48.88
2017-10-29T12:51:20.768Z,48.69
2017-10-29T12:52:29.892Z,48.97
2017-10-29T12:53:39.198Z,48.79
2017-10-29T12:54:47.867Z,48.97
2017-10-29T12:55:56.502Z,49.37
2017-10-29T12:57:05.493Z,48.79
2017-10-29T12:58:14.156Z,48.97
2017-10-29T12:59:23.471Z,48.79
2017-10-29T13:00:32.110Z,48.88
2017-10-29T13:01:40.769Z,48.69
2017-10-29T13:02:49.749Z,48.97
2017-10-29T13:03:58.500Z,48.97
2017-10-29T13:05:07.834Z,48.88
2017-10-29T13:06:16.807Z,48.88
2017-10-29T13:07:25.799Z,48.88
2017-10-29T13:08:35.528Z,48.59
2017-10-29T13:09:44.859Z,49.07
2017-10-29T13:10:53.845Z,49.27
2017-10-29T13:12:03.171Z,49.17
2017-10-29T13:13:12.493Z,49.07
2017-10-29T13:14:21.156Z,48.97
2017-10-29T13:15:29.896Z,49.37
2017-10-29T13:16:38.882Z,49.17
2017-10-29T13:17:48.211Z,49.17
2017-10-29T13:18:57.203Z,49.17
2017-10-29T13:20:06.203Z,49.55
2017-10-29T13:21:15.245Z,49.55
2017-10-29T13:22:25.236Z,49.55
2017-10-29T13:23:34.240Z,49.65
2017-10-29T13:24:43.571Z,49.55
2017-10-29T13:25:52.869Z,49.55
2017-10-29T13:27:02.171Z,49.55
2017-10-29T13:28:11.161Z,49.65
2017-10-29T13:29:20.145Z,49.46
2017-10-29T13:30:29.456Z,49.46
2017-10-29T13:31:38.805Z,49.55
2017-10-29T13:32:47.447Z,49.46
2017-10-29T13:33:56.431Z,49.55
2017-10-29T13:35:05.775Z,49.46
2017-10-29T13:36:15.417Z,49.46
2017-10-29T13:37:24.537Z,49.37
2017-10-29T13:38:34.283Z,49.37
2017-10-29T13:39:43.875Z,49.37
2017-10-29T13:40:52.718Z,49.55
2017-10-29T13:42:01.730Z,49.17
2017-10-29T13:43:11.378Z,49.37
2017-10-29T13:44:20.420Z,49.27
2017-10-29T13:45:30.057Z,49.37
2017-10-29T13:46:39.772Z,49.37
2017-10-29T13:47:48.423Z,49.46
2017-10-29T13:48:57.407Z,49.46
2017-10-29T13:50:06.060Z,49.17
2017-10-29T13:51:15.369Z,49.37
2017-10-29T13:52:24.385Z,49.37
2017-10-29T13:53:33.457Z,49.27
2017-10-29T13:54:42.113Z,49.37
2017-10-29T13:55:50.773Z,49.37
2017-10-29T13:56:59.799Z,49.27
2017-10-29T13:58:09.622Z,49.37
2017-10-29T13:59:18.946Z,49.46
2017-10-29T14:00:28.279Z,49.37
2017-10-29T14:01:37.269Z,49.17
2017-10-29T14:02:46.263Z,49.37
2017-10-29T14:03:55.270Z,49.46
2017-10-29T14:05:04.256Z,49.75
2017-10-29T14:06:13.244Z,49.55
2017-10-29T14:07:22.885Z,49.84
2017-10-29T14:08:32.214Z,50.04
2017-10-29T14:09:41.215Z,49.84
2017-10-29T14:10:50.908Z,49.84
2017-10-29T14:11:59.885Z,49.84
2017-10-29T14:13:08.983Z,49.94
2017-10-29T14:14:17.964Z,49.94
2017-10-29T14:15:27.600Z,49.55
2017-10-29T14:16:36.600Z,49.94
2017-10-29T14:17:45.589Z,49.94
2017-10-29T14:18:54.682Z,49.55
2017-10-29T14:20:03.653Z,50.04
2017-10-29T14:21:12.947Z,49.94
2017-10-29T14:22:22.249Z,49.84
2017-10-29T14:23:31.219Z,49.84
2017-10-29T14:24:39.860Z,49.84
2017-10-29T14:25:49.177Z,49.94
2017-10-29T14:26:58.169Z,49.84
2017-10-29T14:28:07.138Z,49.84
2017-10-29T14:29:16.437Z,49.75
2017-10-29T14:30:25.930Z,49.94
2017-10-29T14:31:35.368Z,49.84
2017-10-29T14:32:44.585Z,49.65
2017-10-29T14:33:53.970Z,49.55
2017-10-29T14:35:02.922Z,49.75
2017-10-29T14:36:12.310Z,49.75
2017-10-29T14:37:21.137Z,49.75
2017-10-29T14:38:30.049Z,49.75
2017-10-29T14:39:38.964Z,49.84
2017-10-29T14:40:48.028Z,49.65
2017-10-29T14:41:57.544Z,49.84
2017-10-29T14:43:06.649Z,49.65
2017-10-29T14:44:15.720Z,50.23
2017-10-29T14:45:25.067Z,50.13
2017-10-29T14:46:33.730Z,49.84
2017-10-29T14:47:43.073Z,49.84
2017-10-29T14:48:52.051Z,50.04
2017-10-29T14:50:01.375Z,50.13
2017-10-29T14:51:10.377Z,50.04
2017-10-29T14:52:19.356Z,50.13
2017-10-29T14:53:28.476Z,50.04